Time;durP1;ratioP1;P1;durP2;ratioP2;P2;SDS_P1;SDS_P2;PMS_P1;PMS_P2;Temp;Humidity;BMP_temperature;BMP_pressure;BME280_temperature;BME280_humidity;BME280_pressure;Samples;Min_cycle;Max_cycle;Signal;HPM_P1;HPM_P2
2022/05/25 00:03:27;;;;;;;1.67;1.20;;;20.90;57.70;;;;;;7625046;23;20022;-73
2022/05/25 00:06:28;;;;;;;3.72;1.17;;;20.80;57.70;;;;;;7659651;23;20018;-73
2022/05/25 00:09:30;;;;;;;4.57;1.70;;;20.80;58.00;;;;;;7611346;23;20010;-73
2022/05/25 00:12:31;;;;;;;3.03;1.48;;;20.70;58.20;;;;;;7611547;23;20027;-72
2022/05/25 00:15:32;;;;;;;4.72;2.00;;;20.70;58.30;;;;;;7636695;23;20048;-72
2022/05/25 00:18:33;;;;;;;2.83;2.00;;;20.60;58.40;;;;;;7612472;23;20108;-73
2022/05/25 00:21:34;;;;;;;6.45;2.47;;;20.60;58.40;;;;;;7661548;23;20025;-73
2022/05/25 00:24:34;;;;;;;4.82;2.38;;;20.60;58.40;;;;;;7672934;23;20013;-73
2022/05/25 00:27:35;;;;;;;4.47;2.05;;;20.60;58.40;;;;;;7648836;23;20083;-74
2022/05/25 00:30:36;;;;;;;2.90;1.83;;;20.60;58.40;;;;;;7674590;23;20028;-74
2022/05/25 00:33:37;;;;;;;2.08;1.50;;;20.60;58.40;;;;;;7673176;23;20033;-74
2022/05/25 00:36:38;;;;;;;1.73;1.20;;;20.60;58.10;;;;;;7647171;23;20163;-74
2022/05/25 00:39:40;;;;;;;2.55;1.20;;;20.60;57.80;;;;;;7648512;23;20044;-74
2022/05/25 00:42:41;;;;;;;5.22;1.50;;;20.60;57.60;;;;;;7674070;23;20048;-74
2022/05/25 00:45:50;;;;;;;2.60;1.30;;;20.60;57.30;;;;;;7674703;23;20761;-73
2022/05/25 00:48:58;;;;;;;3.92;1.60;;;20.60;57.20;;;;;;7642526;23;20308;-74
2022/05/25 00:52:06;;;;;;;1.00;1.00;;;20.60;57.10;;;;;;7673266;23;20083;-74
2022/05/25 00:55:08;;;;;;;;;;;20.60;57.00;;;;;;7675249;23;20371;-74
2022/05/25 00:58:09;;;;;;;2.50;1.02;;;20.60;57.00;;;;;;7647903;23;20240;-73
2022/05/25 01:01:10;;;;;;;3.85;1.55;;;20.60;56.90;;;;;;7672754;23;20028;-74
2022/05/25 01:04:12;;;;;;;2.03;1.20;;;20.50;57.00;;;;;;7647968;23;20091;-74
2022/05/25 01:07:19;;;;;;;4.07;1.23;;;20.50;57.10;;;;;;7646451;23;20013;-74
2022/05/25 01:10:23;;;;;;;1.80;1.23;;;20.50;57.30;;;;;;7648966;23;20020;-73
2022/05/25 01:13:33;;;;;;;1.98;1.15;;;20.50;57.30;;;;;;7648184;23;20320;-72
2022/05/25 01:17:00;;;;;;;2.10;1.08;;;20.40;57.20;;;;;;7625028;23;20309;-73
2022/05/25 01:20:10;;;;;;;1.45;1.00;;;20.40;56.90;;;;;;7682149;23;20428;-73
2022/05/25 01:23:17;;;;;;;4.50;1.27;;;20.40;56.70;;;;;;7685875;23;20442;-73
2022/05/25 01:26:45;;;;;;;5.38;1.50;;;20.40;56.60;;;;;;7713405;23;20433;-74
2022/05/25 01:29:58;;;;;;;5.13;1.58;;;20.40;56.70;;;;;;7684385;23;20016;-73
2022/05/25 01:33:13;;;;;;;2.03;1.40;;;20.40;56.70;;;;;;7710920;23;20028;-73
2022/05/25 01:36:25;;;;;;;8.20;1.67;;;20.40;57.40;;;;;;7685308;23;20411;-73
2022/05/25 01:39:31;;;;;;;3.17;1.00;;;20.40;56.80;;;;;;7683741;23;20108;-72
2022/05/25 01:42:43;;;;;;;1.38;0.90;;;20.40;56.80;;;;;;7683907;23;20105;-73
2022/05/25 01:45:57;;;;;;;6.63;0.90;;;20.40;56.40;;;;;;7683848;23;20013;-72
2022/05/25 01:49:03;;;;;;;2.55;0.73;;;20.40;55.80;;;;;;7682147;23;20020;-73
2022/05/25 01:52:08;;;;;;;1.63;0.80;;;20.40;55.40;;;;;;7684017;23;20099;-73
2022/05/25 01:55:17;;;;;;;1.15;1.00;;;20.40;55.00;;;;;;7683686;23;20028;-73
2022/05/25 01:58:19;;;;;;;;;;;20.40;54.70;;;;;;7710727;23;20086;-73
2022/05/25 02:01:21;;;;;;;1.40;0.77;;;20.40;54.10;;;;;;7683630;23;20333;-73
2022/05/25 02:04:22;;;;;;;0.55;0.50;;;20.40;53.30;;;;;;7683077;23;20420;-73
2022/05/25 02:07:41;;;;;;;1.30;0.60;;;20.40;52.70;;;;;;7683360;23;20015;-73
2022/05/25 02:11:04;;;;;;;1.35;0.50;;;20.40;51.80;;;;;;7682655;23;20037;-73
2022/05/25 02:14:33;;;;;;;0.98;0.55;;;20.40;51.20;;;;;;7682803;23;20100;-74
2022/05/25 02:17:51;;;;;;;;;;;20.40;50.30;;;;;;7686204;23;20022;-73
2022/05/25 02:20:59;;;;;;;2.58;1.02;;;20.40;50.60;;;;;;7713306;23;19934;-73
2022/05/25 02:24:09;;;;;;;;;;;20.40;51.60;;;;;;7687425;23;20304;-73
2022/05/25 02:27:18;;;;;;;2.20;0.80;;;20.40;51.60;;;;;;7685157;23;20258;-73
2022/05/25 02:30:23;;;;;;;1.35;0.73;;;20.30;51.20;;;;;;7713267;23;20016;-72
2022/05/25 02:33:32;;;;;;;0.65;0.40;;;20.30;50.70;;;;;;7687145;23;20005;-72
2022/05/25 02:36:35;;;;;;;0.43;0.43;;;20.30;50.30;;;;;;7713989;23;20048;-72
2022/05/25 02:39:36;;;;;;;2.08;0.45;;;20.30;49.50;;;;;;7713111;23;20023;-72
2022/05/25 02:42:39;;;;;;;2.65;0.70;;;20.20;49.10;;;;;;7662157;23;20071;-73
2022/05/25 02:45:40;;;;;;;0.52;0.52;;;20.20;48.70;;;;;;7687360;23;20056;-73
2022/05/25 02:48:40;;;;;;;2.90;0.88;;;20.20;48.70;;;;;;7687330;23;20008;-72
2022/05/25 02:51:41;;;;;;;0.50;0.50;;;20.20;48.80;;;;;;7686750;23;20032;-73
2022/05/25 02:54:42;;;;;;;1.40;0.70;;;20.20;48.50;;;;;;7686961;23;20723;-73
2022/05/25 02:57:43;;;;;;;3.22;0.68;;;20.20;48.20;;;;;;7686644;23;20308;-73
2022/05/25 03:00:44;;;;;;;1.63;0.50;;;20.20;47.90;;;;;;7662386;23;20032;-73
2022/05/25 03:03:45;;;;;;;3.33;0.50;;;20.20;47.50;;;;;;7712720;23;20091;-73
2022/05/25 03:06:47;;;;;;;1.83;0.50;;;20.20;47.20;;;;;;7686877;23;20019;-73
2022/05/25 03:09:48;;;;;;;1.52;0.60;;;20.20;46.90;;;;;;7687060;23;20020;-73
2022/05/25 03:12:48;;;;;;;1.35;0.65;;;20.20;46.60;;;;;;7662013;23;20035;-74
2022/05/25 03:15:49;;;;;;;0.80;0.47;;;20.10;46.50;;;;;;7660566;23;20020;-73
2022/05/25 03:18:51;;;;;;;4.10;0.77;;;20.10;46.50;;;;;;7661643;23;20012;-72
2022/05/25 03:21:51;;;;;;;1.20;0.50;;;20.10;46.50;;;;;;7712999;23;20024;-73
2022/05/25 03:24:52;;;;;;;0.98;0.55;;;20.00;46.50;;;;;;7686861;23;20079;-72
2022/05/25 03:27:54;;;;;;;7.03;0.47;;;20.00;46.50;;;;;;7685821;23;20020;-73
2022/05/25 03:30:55;;;;;;;0.95;0.30;;;20.00;46.40;;;;;;7685960;23;20013;-73
2022/05/25 03:33:56;;;;;;;3.08;0.70;;;20.00;46.30;;;;;;7686033;23;20470;-73
2022/05/25 03:36:57;;;;;;;1.13;0.47;;;19.90;46.30;;;;;;7712632;23;20044;-73
2022/05/25 03:39:58;;;;;;;3.92;0.50;;;19.90;46.20;;;;;;7712784;23;20308;-74
2022/05/25 03:42:59;;;;;;;0.80;0.60;;;19.90;46.10;;;;;;7685945;23;20479;-73
2022/05/25 03:46:00;;;;;;;2.40;0.60;;;19.90;46.10;;;;;;7712379;23;20042;-73
2022/05/25 03:49:01;;;;;;;5.18;0.63;;;19.90;46.20;;;;;;7713041;23;20019;-75
2022/05/25 03:52:04;;;;;;;0.55;0.45;;;19.90;46.20;;;;;;7713024;23;20013;-74
2022/05/25 03:55:06;;;;;;;1.58;0.38;;;19.90;46.20;;;;;;7685819;23;20050;-73
2022/05/25 03:58:07;;;;;;;0.40;0.35;;;19.80;46.10;;;;;;7695533;23;20087;-73
2022/05/25 04:01:08;;;;;;;4.70;0.70;;;19.80;46.20;;;;;;7686604;23;20028;-74
2022/05/25 04:04:09;;;;;;;1.55;0.50;;;19.80;46.20;;;;;;7660807;23;20373;-73
2022/05/25 04:07:10;;;;;;;0.52;0.47;;;19.70;46.20;;;;;;7695061;23;20016;-74
2022/05/25 04:10:14;;;;;;;2.47;0.30;;;19.70;46.30;;;;;;7686436;23;20023;-73
2022/05/25 04:13:16;;;;;;;0.85;0.40;;;19.70;46.40;;;;;;7711275;23;20096;-72
2022/05/25 04:16:17;;;;;;;1.98;0.52;;;19.70;46.50;;;;;;7712402;23;20036;-74
2022/05/25 04:19:18;;;;;;;3.75;0.50;;;19.70;46.50;;;;;;7667692;23;20021;-73
2022/05/25 04:22:19;;;;;;;1.48;0.40;;;19.70;46.40;;;;;;7670800;23;20029;-74
2022/05/25 04:25:23;;;;;;;0.50;0.50;;;19.70;46.50;;;;;;7669454;23;20327;-73
2022/05/25 04:28:24;;;;;;;5.47;0.65;;;19.70;46.60;;;;;;7671839;23;20024;-73
2022/05/25 04:31:25;;;;;;;2.03;0.85;;;19.60;46.70;;;;;;7674471;23;20021;-74
2022/05/25 04:34:26;;;;;;;1.58;0.60;;;19.70;46.90;;;;;;7600578;23;20025;-73
2022/05/25 04:40:46;;;;;;;2.63;0.57;;;19.60;47.00;;;;;;7672873;23;20013;-74
2022/05/25 04:43:47;;;;;;;4.03;0.68;;;19.60;47.00;;;;;;7670672;23;20396;-73
2022/05/25 04:46:49;;;;;;;1.13;0.60;;;19.60;47.00;;;;;;7674145;23;20417;-73
2022/05/25 04:49:50;;;;;;;3.22;0.55;;;19.60;46.80;;;;;;7673736;23;20416;-72
2022/05/25 04:52:51;;;;;;;1.10;0.80;;;19.50;46.70;;;;;;7672952;23;20009;-71
2022/05/25 04:59:11;;;;;;;0.65;0.55;;;19.50;46.50;;;;;;7636921;23;20029;-72
2022/05/25 05:02:13;;;;;;;4.32;1.88;;;19.50;46.40;;;;;;7660805;23;20021;-72
2022/05/25 05:05:14;;;;;;;4.68;1.33;;;19.50;46.40;;;;;;7637955;23;20017;-71
2022/05/25 05:08:16;;;;;;;5.72;1.50;;;19.60;46.30;;;;;;7660058;23;20165;-72
2022/05/25 05:11:18;;;;;;;4.95;0.63;;;19.60;46.20;;;;;;7635468;23;20021;-72
2022/05/25 05:14:19;;;;;;;1.80;1.17;;;19.60;46.20;;;;;;7622308;23;20017;-72
2022/05/25 05:17:20;;;;;;;5.82;2.70;;;19.60;46.10;;;;;;7610380;23;20047;-72
2022/05/25 05:20:41;;;;;;;0.73;0.57;;;19.60;46.20;;;;;;7633542;23;20270;-71
2022/05/25 05:23:43;;;;;;;3.25;0.40;;;19.60;46.20;;;;;;7673762;23;20013;-73
2022/05/25 05:26:44;;;;;;;0.40;0.30;;;19.60;46.20;;;;;;7646362;23;20013;-73
2022/05/25 05:29:45;;;;;;;1.08;0.30;;;19.60;46.40;;;;;;7647095;23;20428;-72
2022/05/25 05:32:45;;;;;;;1.17;0.60;;;19.60;46.30;;;;;;7673915;23;20013;-72
2022/05/25 05:35:52;;;;;;;2.30;1.63;;;19.60;46.80;;;;;;7646965;23;20451;-72
2022/05/25 05:38:56;;;;;;;1.27;0.50;;;19.60;46.10;;;;;;7673686;23;20021;-72
2022/05/25 05:42:19;;;;;;;3.67;1.02;;;19.70;46.10;;;;;;7672873;23;20096;-72
2022/05/25 05:45:29;;;;;;;5.85;1.00;;;19.70;46.00;;;;;;7671622;23;20023;-71
2022/05/25 05:48:34;;;;;;;1.92;0.93;;;19.70;46.00;;;;;;7658054;23;20024;-72
2022/05/25 05:51:35;;;;;;;3.60;0.52;;;19.70;46.00;;;;;;7710063;23;20008;-70
2022/05/25 05:54:38;;;;;;;1.40;0.40;;;19.80;46.10;;;;;;7679184;23;20104;-72
2022/05/25 05:57:39;;;;;;;1.58;0.65;;;19.80;46.00;;;;;;7672101;23;20009;-72
2022/05/25 06:00:40;;;;;;;7.97;1.90;;;19.90;46.00;;;;;;7674657;23;20009;-72
2022/05/25 06:03:41;;;;;;;13.65;1.77;;;20.00;46.00;;;;;;7648252;23;20013;-72
2022/05/25 06:06:43;;;;;;;1.75;0.95;;;20.00;45.90;;;;;;7687262;23;20019;-73
2022/05/25 06:09:44;;;;;;;3.03;0.80;;;20.10;45.90;;;;;;7687717;23;20355;-72
2022/05/25 06:12:47;;;;;;;2.00;0.40;;;20.20;45.80;;;;;;7661606;23;20008;-72
2022/05/25 06:19:29;;;;;;;2.97;1.00;;;20.20;46.10;;;;;;7683200;23;20450;-73
2022/05/25 06:22:32;;;;;;;5.97;0.80;;;20.30;45.50;;;;;;7709089;23;20016;-72
2022/05/25 06:25:33;;;;;;;3.38;0.60;;;20.30;45.60;;;;;;7709198;23;20031;-71
2022/05/25 06:28:34;;;;;;;0.50;0.50;;;20.30;45.60;;;;;;7683829;23;20016;-72
2022/05/25 06:31:35;;;;;;;5.25;0.80;;;20.30;45.50;;;;;;7709607;23;20024;-71
2022/05/25 06:34:37;;;;;;;1.77;0.70;;;20.30;45.40;;;;;;7708713;23;20084;-71
2022/05/25 06:37:38;;;;;;;1.13;0.50;;;20.30;45.40;;;;;;7658236;23;20016;-71
2022/05/25 06:40:39;;;;;;;4.47;0.55;;;20.40;45.50;;;;;;7709113;23;20420;-70
2022/05/25 06:43:41;;;;;;;1.70;0.60;;;20.50;45.30;;;;;;7674873;23;20024;-71
2022/05/25 06:46:41;;;;;;;14.20;0.95;;;20.60;45.20;;;;;;7669433;23;20129;-71
2022/05/25 06:49:43;;;;;;;2.45;0.50;;;20.70;45.20;;;;;;7671327;23;20021;-71
2022/05/25 06:52:43;;;;;;;10.98;0.93;;;20.70;45.10;;;;;;7672838;23;20013;-71
2022/05/25 06:55:45;;;;;;;1.90;0.65;;;20.70;45.20;;;;;;7671846;23;20440;-70
2022/05/25 06:58:47;;;;;;;2.30;0.70;;;20.70;45.10;;;;;;7669658;23;20143;-71
2022/05/25 07:01:48;;;;;;;6.93;0.70;;;20.60;45.10;;;;;;7666633;23;20012;-71
2022/05/25 07:04:49;;;;;;;3.15;0.43;;;20.60;45.20;;;;;;7672791;23;20309;-70
2022/05/25 07:07:50;;;;;;;5.57;1.15;;;20.50;45.30;;;;;;7663210;23;20088;-71
2022/05/25 07:10:51;;;;;;;10.48;0.90;;;20.50;45.30;;;;;;7671385;23;20009;-71
2022/05/25 07:13:52;;;;;;;2.40;0.70;;;20.50;45.50;;;;;;7670690;23;20009;-70
2022/05/25 07:16:55;;;;;;;2.65;1.20;;;20.70;45.50;;;;;;7667200;23;20075;-71
2022/05/25 07:19:55;;;;;;;2.22;0.80;;;20.60;45.40;;;;;;7662953;23;20121;-71
2022/05/25 07:22:57;;;;;;;23.88;2.05;;;20.70;45.30;;;;;;7634342;23;20026;-70
2022/05/25 07:25:58;;;;;;;3.97;0.90;;;20.80;45.30;;;;;;7633791;23;20076;-70
2022/05/25 07:28:59;;;;;;;2.47;0.77;;;20.80;45.30;;;;;;7633768;23;20025;-70
2022/05/25 07:32:06;;;;;;;0.60;0.60;;;20.80;45.20;;;;;;7633889;23;20040;-72
2022/05/25 07:35:09;;;;;;;2.05;0.50;;;20.80;45.30;;;;;;7646029;23;20025;-71
2022/05/25 07:38:10;;;;;;;2.30;0.75;;;20.80;45.30;;;;;;7671389;23;20289;-71
2022/05/25 07:41:12;;;;;;;2.65;0.50;;;20.70;45.40;;;;;;7669962;23;20037;-71
2022/05/25 07:44:17;;;;;;;2.85;0.80;;;20.70;45.40;;;;;;7621031;23;20428;-71
2022/05/25 07:47:24;;;;;;;0.85;0.35;;;20.70;45.30;;;;;;7672965;23;20017;-73
2022/05/25 07:50:25;;;;;;;2.93;0.63;;;20.80;45.30;;;;;;7630334;23;20052;-72
2022/05/25 07:56:46;;;;;;;1.30;0.60;;;20.90;45.20;;;;;;7646089;23;20073;-72
2022/05/25 07:59:47;;;;;;;1.42;0.52;;;20.90;45.20;;;;;;7645067;23;20013;-72
2022/05/25 08:06:09;;;;;;;0.63;0.60;;;20.80;45.30;;;;;;7673251;23;20013;-73
2022/05/25 08:09:10;;;;;;;9.50;1.05;;;20.90;45.30;;;;;;7646289;23;20021;-72
2022/05/25 08:12:12;;;;;;;4.18;0.73;;;20.90;45.30;;;;;;7673175;23;20424;-72
2022/05/25 08:15:15;;;;;;;0.52;0.52;;;21.00;45.20;;;;;;7608836;23;20025;-71
2022/05/25 08:18:18;;;;;;;0.63;0.50;;;21.00;45.10;;;;;;7672329;23;20025;-72
2022/05/25 08:21:19;;;;;;;2.55;0.80;;;21.10;45.00;;;;;;7646066;23;20087;-72
2022/05/25 08:24:20;;;;;;;3.85;0.77;;;21.20;45.00;;;;;;7638464;23;20425;-72
2022/05/25 08:27:21;;;;;;;2.15;1.13;;;21.40;44.80;;;;;;7609293;23;20299;-71
2022/05/25 08:30:22;;;;;;;5.18;3.30;;;21.50;44.60;;;;;;7672136;23;20028;-72
2022/05/25 08:33:23;;;;;;;3.53;1.02;;;21.70;44.40;;;;;;7646697;23;20148;-72
2022/05/25 08:36:24;;;;;;;2.05;0.70;;;21.80;44.10;;;;;;7644949;23;20048;-72
2022/05/25 08:39:25;;;;;;;3.47;0.88;;;21.90;44.00;;;;;;7646453;23;20104;-73
2022/05/25 08:42:29;;;;;;;3.20;0.73;;;22.00;43.80;;;;;;7646648;23;20023;-72
2022/05/25 08:45:38;;;;;;;3.63;0.70;;;22.20;43.70;;;;;;7671823;23;20309;-74
2022/05/25 08:48:39;;;;;;;;;;;22.40;43.40;;;;;;7645920;23;20017;-74
2022/05/25 08:51:49;;;;;;;6.47;0.77;;;22.60;43.10;;;;;;7671080;23;20295;-75
2022/05/25 08:54:52;;;;;;;3.47;0.90;;;22.80;43.30;;;;;;7670209;23;20069;-75
2022/05/25 08:57:56;;;;;;;2.63;0.77;;;23.00;42.40;;;;;;7645222;23;20756;-75
2022/05/25 09:01:01;;;;;;;2.63;0.95;;;23.20;42.10;;;;;;7671470;23;20016;-74
2022/05/25 09:04:18;;;;;;;5.15;0.98;;;23.40;41.80;;;;;;7645007;23;20005;-73
2022/05/25 09:07:25;;;;;;;10.60;1.10;;;23.50;41.60;;;;;;7670417;23;20096;-73
2022/05/25 09:10:29;;;;;;;3.28;1.10;;;23.80;41.30;;;;;;7673704;23;20117;-74
2022/05/25 09:13:40;;;;;;;3.85;0.90;;;24.10;40.90;;;;;;7672914;23;20443;-74
2022/05/25 09:16:44;;;;;;;2.22;0.60;;;24.50;40.60;;;;;;7661268;23;20028;-74
2022/05/25 09:19:47;;;;;;;3.25;0.80;;;24.70;39.30;;;;;;7617749;23;20041;-73
2022/05/25 09:22:48;;;;;;;1.70;0.90;;;24.90;38.90;;;;;;7637058;23;20024;-73
2022/05/25 09:25:49;;;;;;;4.68;1.00;;;25.00;38.60;;;;;;7624930;23;20039;-73
2022/05/25 09:28:57;;;;;;;2.83;0.90;;;25.20;38.40;;;;;;7613704;23;20061;-73
2022/05/25 09:32:09;;;;;;;10.25;1.00;;;25.40;38.20;;;;;;7627864;23;20075;-73
2022/05/25 09:35:20;;;;;;;0.73;0.65;;;25.50;37.90;;;;;;7634957;23;20028;-73
2022/05/25 09:38:50;;;;;;;4.18;0.90;;;25.60;37.50;;;;;;7635482;23;20013;-71
2022/05/25 09:41:59;;;;;;;11.55;2.72;;;25.70;37.30;;;;;;7500717;23;20086;-71
2022/05/25 09:45:01;;;;;;;1.13;0.60;;;25.70;37.10;;;;;;7525556;23;20414;-71
2022/05/25 09:48:16;;;;;;;3.88;0.95;;;25.80;37.00;;;;;;7523605;23;20046;-73
2022/05/25 09:51:23;;;;;;;3.35;0.90;;;25.80;36.90;;;;;;7524135;23;20098;-72
2022/05/25 09:54:26;;;;;;;3.85;0.65;;;25.80;36.80;;;;;;7523661;23;20367;-71
2022/05/25 09:57:28;;;;;;;2.35;0.98;;;25.80;36.70;;;;;;7500102;23;20167;-71
2022/05/25 10:00:47;;;;;;;0.90;0.68;;;25.80;36.50;;;;;;7509541;23;20015;-73
2022/05/25 10:03:50;;;;;;;6.13;0.85;;;25.90;36.50;;;;;;7497781;23;20087;-73
2022/05/25 10:06:52;;;;;;;2.30;0.60;;;26.00;36.30;;;;;;7522340;23;20019;-71
2022/05/25 10:10:00;;;;;;;3.30;0.57;;;26.10;36.10;;;;;;7523066;23;20343;-72
2022/05/25 10:13:13;;;;;;;4.82;0.75;;;26.10;36.00;;;;;;7520992;23;20094;-71
2022/05/25 10:16:30;;;;;;;3.75;0.90;;;26.30;35.60;;;;;;7520352;23;20043;-72
2022/05/25 10:19:35;;;;;;;0.60;0.40;;;26.40;35.20;;;;;;7606065;23;20021;-72
2022/05/25 10:22:41;;;;;;;5.63;0.82;;;26.50;35.00;;;;;;7645822;23;20270;-71
2022/05/25 10:25:48;;;;;;;1.20;0.70;;;26.60;34.80;;;;;;7607208;23;20433;-72
2022/05/25 10:28:56;;;;;;;3.25;0.93;;;26.80;34.60;;;;;;7666979;23;20028;-72
2022/05/25 10:38:47;;;;;;;2.55;0.68;;;26.80;34.10;;;;;;7634193;23;20675;-72
2022/05/25 10:42:05;;;;;;;2.38;0.90;;;26.80;34.00;;;;;;7634825;23;20024;-71
2022/05/25 10:45:20;;;;;;;0.90;0.82;;;26.80;34.10;;;;;;7635748;23;20017;-71
2022/05/25 10:48:42;;;;;;;3.17;1.20;;;26.70;34.00;;;;;;7671832;23;20103;-72
2022/05/25 10:51:49;;;;;;;3.85;0.73;;;26.50;34.10;;;;;;7640907;23;20129;-71
2022/05/25 10:54:55;;;;;;;1.80;1.13;;;26.50;34.20;;;;;;7636781;23;20038;-72
2022/05/25 10:58:24;;;;;;;1.48;0.73;;;26.50;34.20;;;;;;7611849;23;20025;-71
2022/05/25 11:01:33;;;;;;;1.77;1.45;;;26.80;34.20;;;;;;7636071;23;20040;-72
2022/05/25 11:05:12;;;;;;;5.90;1.48;;;27.20;32.90;;;;;;7636536;23;20361;-71
2022/05/25 11:08:31;;;;;;;1.70;0.63;;;28.00;32.00;;;;;;7630315;23;20048;-71
2022/05/25 11:12:07;;;;;;;2.42;0.82;;;29.20;30.30;;;;;;7663883;23;20028;-71
2022/05/25 11:15:30;;;;;;;2.53;0.63;;;29.70;29.50;;;;;;7666408;23;20083;-73
2022/05/25 11:18:49;;;;;;;0.65;0.63;;;29.90;29.20;;;;;;7668076;23;20016;-71
2022/05/25 11:22:10;;;;;;;2.45;0.60;;;30.30;28.80;;;;;;7649964;23;20013;-73
2022/05/25 11:25:27;;;;;;;1.17;0.65;;;30.70;28.30;;;;;;7641883;23;20035;-72
2022/05/25 11:28:43;;;;;;;2.00;0.75;;;31.10;28.10;;;;;;7669196;23;20397;-72
2022/05/25 11:32:12;;;;;;;1.23;0.50;;;31.70;27.50;;;;;;7667203;23;20044;-72
2022/05/25 11:35:40;;;;;;;8.45;0.90;;;32.30;26.80;;;;;;7642598;23;20024;-72
2022/05/25 11:39:11;;;;;;;1.10;0.60;;;32.80;26.20;;;;;;7463101;23;20015;-73
2022/05/25 11:42:40;;;;;;;0.75;0.65;;;32.90;25.90;;;;;;7485925;23;20391;-73
2022/05/25 11:45:40;;;;;;;6.75;0.70;;;32.50;25.90;;;;;;7461092;23;20031;-72
2022/05/25 11:49:03;;;;;;;1.85;0.50;;;32.00;26.20;;;;;;7483397;23;20411;-72
2022/05/25 11:52:52;;;;;;;4.40;0.68;;;31.30;26.70;;;;;;7486502;23;20027;-74
2022/05/25 11:56:38;;;;;;;7.22;0.77;;;30.90;27.10;;;;;;7393289;23;20043;-72
2022/05/25 11:59:51;;;;;;;4.97;0.73;;;30.40;27.20;;;;;;7417162;23;20468;-72
2022/05/25 12:03:11;;;;;;;1.67;0.60;;;30.00;27.80;;;;;;7395020;23;20016;-76
2022/05/25 12:06:40;;;;;;;1.63;0.70;;;29.80;28.00;;;;;;7417493;23;20131;-72
2022/05/25 12:09:43;;;;;;;9.40;0.60;;;29.40;28.10;;;;;;7418761;23;20152;-72
2022/05/25 12:12:48;;;;;;;4.80;1.50;;;29.30;28.40;;;;;;7418262;23;20487;-71
2022/05/25 12:16:21;;;;;;;3.35;1.05;;;29.20;28.50;;;;;;7484034;23;20019;-71
2022/05/25 12:19:27;;;;;;;4.03;0.70;;;29.10;28.70;;;;;;7521151;23;20023;-72
2022/05/25 12:22:34;;;;;;;0.75;0.60;;;28.80;28.80;;;;;;7533847;23;20022;-71
2022/05/25 12:25:39;;;;;;;0.73;0.70;;;28.60;29.00;;;;;;7520680;23;20038;-74
2022/05/25 12:28:43;;;;;;;1.15;0.75;;;28.30;29.30;;;;;;7534437;23;20429;-72
2022/05/25 12:31:46;;;;;;;1.50;0.50;;;28.10;29.50;;;;;;7581015;23;20092;-73
2022/05/25 12:34:50;;;;;;;2.95;0.60;;;27.90;29.80;;;;;;7671405;23;20013;-73
2022/05/25 12:37:53;;;;;;;1.60;0.60;;;27.70;29.90;;;;;;7670917;23;20282;-72
2022/05/25 12:40:54;;;;;;;2.78;0.77;;;27.50;30.00;;;;;;7671278;23;20008;-72
2022/05/25 12:43:59;;;;;;;6.65;0.63;;;27.40;30.00;;;;;;7683033;23;20020;-73
2022/05/25 12:51:05;;;;;;;1.73;0.60;;;27.40;30.40;;;;;;7670580;23;20020;-72
2022/05/25 12:54:24;;;;;;;4.50;0.68;;;27.70;30.00;;;;;;7704100;23;20289;-72
2022/05/25 12:57:37;;;;;;;1.13;0.60;;;28.50;29.40;;;;;;7679144;23;20324;-72
2022/05/25 13:00:41;;;;;;;0.60;0.50;;;29.20;28.90;;;;;;7706303;23;20024;-71
2022/05/25 13:04:15;;;;;;;1.55;0.60;;;30.10;28.00;;;;;;7631862;23;20028;-72
2022/05/25 13:07:45;;;;;;;3.60;0.73;;;31.20;27.10;;;;;;7679600;23;20071;-73
2022/05/25 13:10:46;;;;;;;0.93;0.60;;;32.10;26.20;;;;;;7669625;23;20027;-73
2022/05/25 13:13:48;;;;;;;4.03;0.43;;;32.80;25.60;;;;;;7654921;23;20018;-73
2022/05/25 13:17:00;;;;;;;6.57;0.70;;;33.00;25.10;;;;;;7678710;23;20017;-72
2022/05/25 13:20:06;;;;;;;2.72;0.98;;;32.60;25.40;;;;;;7690788;23;20365;-72
2022/05/25 13:23:08;;;;;;;3.85;0.63;;;32.30;25.60;;;;;;7670385;23;20294;-71
2022/05/25 13:26:10;;;;;;;1.75;0.50;;;31.90;25.80;;;;;;7644998;23;20017;-72
2022/05/25 13:29:51;;;;;;;2.90;0.50;;;31.60;26.00;;;;;;7670315;23;20104;-71
2022/05/25 13:32:56;;;;;;;3.90;0.70;;;31.10;26.40;;;;;;7628456;23;20037;-71
2022/05/25 13:36:05;;;;;;;3.05;0.60;;;30.50;26.80;;;;;;7606599;23;20154;-71
2022/05/25 13:39:06;;;;;;;3.95;1.00;;;30.20;27.30;;;;;;7608118;23;20093;-72
2022/05/25 13:42:18;;;;;;;3.83;0.85;;;30.00;27.50;;;;;;7608032;23;20298;-72
2022/05/25 13:45:23;;;;;;;0.50;0.50;;;29.70;27.70;;;;;;7582569;23;20299;-72
2022/05/25 13:48:24;;;;;;;2.17;0.50;;;29.50;28.00;;;;;;7607614;23;20028;-73
2022/05/25 13:51:26;;;;;;;1.63;0.65;;;29.40;28.10;;;;;;7608227;23;20369;-72
2022/05/25 13:54:35;;;;;;;2.08;0.90;;;29.50;28.20;;;;;;7635305;23;20013;-71
2022/05/25 13:57:49;;;;;;;3.58;0.60;;;29.90;27.80;;;;;;7607123;23;20088;-71
2022/05/25 14:00:50;;;;;;;6.65;0.50;;;29.90;27.70;;;;;;7632012;23;20472;-72
2022/05/25 14:04:06;;;;;;;1.10;0.50;;;30.00;27.70;;;;;;7631147;23;20097;-73
2022/05/25 14:07:07;;;;;;;1.75;0.60;;;30.50;27.40;;;;;;7629442;23;20013;-72
2022/05/25 14:13:42;;;;;;;1.10;0.50;;;34.00;24.80;;;;;;7662908;23;20016;-72
2022/05/25 14:17:01;;;;;;;1.30;0.40;;;35.50;23.30;;;;;;7666877;23;20020;-73
2022/05/25 14:20:05;;;;;;;3.00;0.60;;;36.50;22.30;;;;;;7674983;23;20020;-72
2022/05/25 14:23:07;;;;;;;3.65;0.30;;;36.30;22.20;;;;;;7680883;23;20437;-73
2022/05/25 14:26:08;;;;;;;2.00;0.57;;;36.00;22.30;;;;;;7657290;23;20046;-73
2022/05/25 14:29:13;;;;;;;1.42;0.50;;;36.70;22.00;;;;;;7681609;23;20019;-73
2022/05/25 14:32:32;;;;;;;1.02;0.45;;;37.40;21.20;;;;;;7709090;23;20058;-72
2022/05/25 14:35:35;;;;;;;2.80;0.47;;;38.00;21.00;;;;;;7685005;23;20356;-72
2022/05/25 14:38:38;;;;;;;1.00;0.80;;;39.00;20.30;;;;;;7685648;23;20088;-72
2022/05/25 14:41:48;;;;;;;2.25;0.88;;;39.20;19.80;;;;;;7684760;23;20020;-72
2022/05/25 14:44:52;;;;;;;2.67;0.52;;;39.70;19.60;;;;;;7683501;23;20020;-72
2022/05/25 14:48:01;;;;;;;5.47;1.00;;;39.90;18.90;;;;;;7709282;23;20017;-73
2022/05/25 14:51:02;;;;;;;1.75;0.60;;;39.80;18.70;;;;;;7710266;23;20308;-73
2022/05/25 14:54:21;;;;;;;3.13;0.60;;;39.10;19.30;;;;;;7710736;23;20021;-72
2022/05/25 14:57:21;;;;;;;1.30;0.50;;;37.80;20.00;;;;;;7709715;23;20024;-72
2022/05/25 15:00:23;;;;;;;0.52;0.47;;;37.20;20.50;;;;;;7683355;23;20025;-73
2022/05/25 15:03:38;;;;;;;0.40;0.38;;;36.60;20.90;;;;;;7683661;23;20090;-72
2022/05/25 15:06:53;;;;;;;3.78;0.52;;;35.50;21.70;;;;;;7710057;23;20404;-73
2022/05/25 15:10:07;;;;;;;6.13;0.60;;;34.30;22.70;;;;;;7659246;23;20031;-72
2022/05/25 15:13:25;;;;;;;0.88;0.40;;;33.20;23.80;;;;;;7709864;23;20036;-73
2022/05/25 15:19:46;;;;;;;4.63;1.23;;;32.10;25.00;;;;;;7704567;23;20099;-72
2022/05/25 15:23:16;;;;;;;1.75;0.50;;;32.80;24.60;;;;;;7680873;23;20323;-73
2022/05/25 15:26:24;;;;;;;2.60;0.68;;;34.20;23.50;;;;;;7681225;23;20067;-73
2022/05/25 15:29:31;;;;;;;;;;;35.50;22.40;;;;;;7684699;23;20024;-72
2022/05/25 15:32:32;;;;;;;1.10;0.60;;;36.20;21.80;;;;;;7694295;23;20161;-73
2022/05/25 15:35:33;;;;;;;0.63;0.50;;;36.00;21.60;;;;;;7707494;23;20134;-73
2022/05/25 15:38:34;;;;;;;1.50;0.55;;;34.90;22.40;;;;;;7709277;23;20483;-73
2022/05/25 15:41:35;;;;;;;2.28;0.60;;;33.70;23.30;;;;;;7682292;23;20209;-73
2022/05/25 15:44:37;;;;;;;2.17;0.57;;;32.80;24.20;;;;;;7683462;23;20027;-73
2022/05/25 15:47:38;;;;;;;0.85;0.40;;;32.10;24.80;;;;;;7708324;23;20079;-73
2022/05/25 15:50:42;;;;;;;1.15;0.55;;;31.50;25.40;;;;;;7658064;23;20021;-75
2022/05/25 15:53:43;;;;;;;1.00;0.80;;;30.90;26.00;;;;;;7683829;23;20431;-73
2022/05/25 15:56:43;;;;;;;0.80;0.50;;;30.70;26.40;;;;;;7694423;23;20079;-73
2022/05/25 15:59:44;;;;;;;2.03;0.40;;;30.50;26.70;;;;;;7708980;23;20368;-73
2022/05/25 16:02:47;;;;;;;0.63;0.50;;;30.30;26.90;;;;;;7683177;23;20051;-73
2022/05/25 16:05:49;;;;;;;1.40;0.57;;;30.10;27.10;;;;;;7710619;23;20024;-73
2022/05/25 16:12:15;;;;;;;3.13;0.45;;;31.20;26.50;;;;;;7708936;23;20443;-74
2022/05/25 16:15:19;;;;;;;0.43;0.40;;;32.50;25.50;;;;;;7683287;23;20024;-72
2022/05/25 16:18:20;;;;;;;4.20;0.60;;;33.50;24.50;;;;;;7682368;23;20067;-74
2022/05/25 16:21:21;;;;;;;1.95;0.70;;;33.60;24.20;;;;;;7694047;23;20079;-73
2022/05/25 16:24:22;;;;;;;2.42;0.70;;;32.80;24.70;;;;;;7707182;23;20017;-73
2022/05/25 16:27:23;;;;;;;1.73;0.70;;;32.20;25.50;;;;;;7709509;23;20019;-73
2022/05/25 16:30:24;;;;;;;1.30;0.55;;;32.10;25.60;;;;;;7658684;23;20016;-73
2022/05/25 16:33:24;;;;;;;2.95;0.80;;;32.10;25.40;;;;;;7683055;23;20009;-73
2022/05/25 16:36:26;;;;;;;1.15;0.70;;;31.70;25.80;;;;;;7682854;23;20020;-73
2022/05/25 16:39:29;;;;;;;2.33;0.65;;;31.00;26.40;;;;;;7708927;23;20044;-73
2022/05/25 16:42:30;;;;;;;2.50;0.45;;;30.40;27.00;;;;;;7683632;23;20273;-73
2022/05/25 16:45:32;;;;;;;0.65;0.60;;;29.90;27.70;;;;;;7681002;23;20020;-74
2022/05/25 16:48:33;;;;;;;2.72;0.55;;;29.40;28.20;;;;;;7708898;23;20024;-74
2022/05/25 16:51:34;;;;;;;2.88;0.65;;;29.00;28.70;;;;;;7684414;23;20083;-73